sensor_id;sensor_type;location;lat;lon;timestamp;pressure;altitude;pressure_sealevel;temperature;humidity
54329;BME280;40710;51.120;13.136;2023-02-28T00:00:44;100741.22;;;3.95;55.81
54329;BME280;40710;51.120;13.136;2023-02-28T00:03:08;100745.47;;;4.16;56.46
54329;BME280;40710;51.120;13.136;2023-02-28T00:05:33;100744.63;;;4.10;56.25
54329;BME280;40710;51.120;13.136;2023-02-28T00:07:58;100740.25;;;4.13;55.51
54329;BME280;40710;51.120;13.136;2023-02-28T00:10:28;100737.56;;;4.37;55.65
54329;BME280;40710;51.120;13.136;2023-02-28T00:12:55;100742.09;;;3.91;56.05
54329;BME280;40710;51.120;13.136;2023-02-28T00:15:21;100735.94;;;4.12;56.37
54329;BME280;40710;51.120;13.136;2023-02-28T00:17:47;100738.56;;;4.05;55.51
54329;BME280;40710;51.120;13.136;2023-02-28T00:20:12;100737.75;;;3.93;56.07
54329;BME280;40710;51.120;13.136;2023-02-28T00:22:39;100736.88;;;3.96;55.86
54329;BME280;40710;51.120;13.136;2023-02-28T00:25:04;100728.09;;;4.20;55.75
54329;BME280;40710;51.120;13.136;2023-02-28T00:27:31;100729.16;;;3.79;56.15
54329;BME280;40710;51.120;13.136;2023-02-28T00:29:55;100727.31;;;4.00;56.66
54329;BME280;40710;51.120;13.136;2023-02-28T00:32:20;100732.63;;;3.70;56.92
54329;BME280;40710;51.120;13.136;2023-02-28T00:34:44;100734.38;;;3.67;56.05
54329;BME280;40710;51.120;13.136;2023-02-28T00:37:10;100732.69;;;3.43;56.91
54329;BME280;40710;51.120;13.136;2023-02-28T00:39:36;100724.72;;;4.01;56.26
54329;BME280;40710;51.120;13.136;2023-02-28T00:42:02;100727.25;;;4.12;56.00
54329;BME280;40710;51.120;13.136;2023-02-28T00:44:28;100721.31;;;3.87;55.28
54329;BME280;40710;51.120;13.136;2023-02-28T00:46:52;100724.75;;;3.96;55.95
54329;BME280;40710;51.120;13.136;2023-02-28T00:49:18;100723.94;;;3.76;56.27
54329;BME280;40710;51.120;13.136;2023-02-28T00:51:42;100726.41;;;4.13;55.60
54329;BME280;40710;51.120;13.136;2023-02-28T00:54:07;100725.50;;;4.19;56.11
54329;BME280;40710;51.120;13.136;2023-02-28T00:56:31;100721.19;;;4.18;55.68
54329;BME280;40710;51.120;13.136;2023-02-28T00:58:56;100722.94;;;4.11;55.37
54329;BME280;40710;51.120;13.136;2023-02-28T01:01:20;100723.75;;;4.21;55.20
54329;BME280;40710;51.120;13.136;2023-02-28T01:03:45;100725.41;;;4.35;55.33
54329;BME280;40710;51.120;13.136;2023-02-28T01:06:09;100727.22;;;4.23;55.43
54329;BME280;40710;51.120;13.136;2023-02-28T01:08:34;100712.41;;;4.32;55.33
54329;BME280;40710;51.120;13.136;2023-02-28T01:11:07;100724.50;;;4.40;54.64
54329;BME280;40710;51.120;13.136;2023-02-28T01:13:31;100720.28;;;4.17;55.09
54329;BME280;40710;51.120;13.136;2023-02-28T01:15:56;100725.47;;;4.26;54.84
54329;BME280;40710;51.120;13.136;2023-02-28T01:18:21;100717.69;;;4.17;54.61
54329;BME280;40710;51.120;13.136;2023-02-28T01:20:46;100711.69;;;4.06;55.33
54329;BME280;40710;51.120;13.136;2023-02-28T01:23:10;100713.34;;;4.22;54.41
54329;BME280;40710;51.120;13.136;2023-02-28T01:25:36;100708.91;;;4.38;54.40
54329;BME280;40710;51.120;13.136;2023-02-28T01:28:01;100718.66;;;4.04;54.32
54329;BME280;40710;51.120;13.136;2023-02-28T01:30:25;100716.06;;;3.96;55.34
54329;BME280;40710;51.120;13.136;2023-02-28T01:32:50;100709.94;;;4.05;54.13
54329;BME280;40710;51.120;13.136;2023-02-28T01:35:17;100711.78;;;3.84;55.36
54329;BME280;40710;51.120;13.136;2023-02-28T01:37:42;100713.50;;;3.88;55.49
54329;BME280;40710;51.120;13.136;2023-02-28T01:40:07;100711.75;;;3.96;54.47
54329;BME280;40710;51.120;13.136;2023-02-28T01:42:31;100710.72;;;4.24;54.02
54329;BME280;40710;51.120;13.136;2023-02-28T01:45:36;100708.19;;;4.10;54.23
54329;BME280;40710;51.120;13.136;2023-02-28T01:48:05;100711.72;;;4.00;54.32
54329;BME280;40710;51.120;13.136;2023-02-28T01:50:38;100706.44;;;4.12;54.12
54329;BME280;40710;51.120;13.136;2023-02-28T01:53:07;100711.75;;;3.93;55.02
54329;BME280;40710;51.120;13.136;2023-02-28T01:55:34;100707.34;;;4.06;54.16
54329;BME280;40710;51.120;13.136;2023-02-28T01:58:03;100703.84;;;4.12;54.32
54329;BME280;40710;51.120;13.136;2023-02-28T02:00:30;100702.25;;;3.86;54.91
54329;BME280;40710;51.120;13.136;2023-02-28T02:02:58;100701.31;;;4.00;54.48
54329;BME280;40710;51.120;13.136;2023-02-28T02:05:29;100703.03;;;4.05;54.44
54329;BME280;40710;51.120;13.136;2023-02-28T02:08:00;100697.06;;;3.80;55.04
54329;BME280;40710;51.120;13.136;2023-02-28T02:10:36;100697.13;;;3.63;55.53
54329;BME280;40710;51.120;13.136;2023-02-28T02:13:39;100697.13;;;3.62;54.99
54329;BME280;40710;51.120;13.136;2023-02-28T02:18:53;100692.78;;;3.57;55.86
54329;BME280;40710;51.120;13.136;2023-02-28T02:32:24;100700.66;;;3.40;57.45
54329;BME280;40710;51.120;13.136;2023-02-28T02:35:11;100698.09;;;3.25;57.42
54329;BME280;40710;51.120;13.136;2023-02-28T02:38:28;100697.19;;;3.41;57.19
54329;BME280;40710;51.120;13.136;2023-02-28T02:40:47;100693.69;;;3.52;57.07
54329;BME280;40710;51.120;13.136;2023-02-28T02:43:39;100686.78;;;3.48;57.01
54329;BME280;40710;51.120;13.136;2023-02-28T02:46:17;100701.53;;;3.22;57.81
54329;BME280;40710;51.120;13.136;2023-02-28T02:48:46;100702.44;;;3.11;58.00
54329;BME280;40710;51.120;13.136;2023-02-28T02:51:15;100698.09;;;3.11;57.89
54329;BME280;40710;51.120;13.136;2023-02-28T02:53:55;100696.31;;;3.38;57.42
54329;BME280;40710;51.120;13.136;2023-02-28T02:56:27;100700.63;;;3.47;57.14
54329;BME280;40710;51.120;13.136;2023-02-28T02:58:58;100696.38;;;3.16;57.52
54329;BME280;40710;51.120;13.136;2023-02-28T03:01:26;100690.25;;;3.31;57.44
54329;BME280;40710;51.120;13.136;2023-02-28T03:04:04;100699.81;;;3.21;57.99
54329;BME280;40710;51.120;13.136;2023-02-28T03:06:30;100705.88;;;3.10;58.23
54329;BME280;40710;51.120;13.136;2023-02-28T03:08:55;100705.03;;;3.03;58.11
54329;BME280;40710;51.120;13.136;2023-02-28T03:11:20;100710.22;;;2.81;58.54
54329;BME280;40710;51.120;13.136;2023-02-28T03:13:51;100710.22;;;2.91;58.91
54329;BME280;40710;51.120;13.136;2023-02-28T03:16:59;100705.91;;;3.03;58.49
54329;BME280;40710;51.120;13.136;2023-02-28T03:19:38;100710.22;;;2.94;59.09
54329;BME280;40710;51.120;13.136;2023-02-28T03:22:43;100704.16;;;3.04;57.90
54329;BME280;40710;51.120;13.136;2023-02-28T03:25:18;100710.22;;;2.94;58.56
54329;BME280;40710;51.120;13.136;2023-02-28T03:28:22;100705.03;;;2.98;58.46
54329;BME280;40710;51.120;13.136;2023-02-28T03:33:44;100719.75;;;2.79;58.25
54329;BME280;40710;51.120;13.136;2023-02-28T03:36:17;100718.03;;;2.81;58.52
54329;BME280;40710;51.120;13.136;2023-02-28T03:41:28;100703.28;;;3.08;58.64
54329;BME280;40710;51.120;13.136;2023-02-28T03:44:00;100704.16;;;3.10;58.51
54329;BME280;40710;51.120;13.136;2023-02-28T03:46:34;100718.88;;;2.96;59.11
54329;BME280;40710;51.120;13.136;2023-02-28T03:49:16;100720.63;;;3.00;58.45
54329;BME280;40710;51.120;13.136;2023-02-28T03:51:45;100704.16;;;3.04;58.45
54329;BME280;40710;51.120;13.136;2023-02-28T03:54:20;100717.16;;;2.95;59.01
54329;BME280;40710;51.120;13.136;2023-02-28T03:56:59;100713.69;;;2.71;58.69
54329;BME280;40710;51.120;13.136;2023-02-28T03:59:39;100718.03;;;2.94;58.48
54329;BME280;40710;51.120;13.136;2023-02-28T04:02:05;100703.31;;;2.99;58.00
54329;BME280;40710;51.120;13.136;2023-02-28T04:04:30;100710.22;;;3.06;57.97
54329;BME280;40710;51.120;13.136;2023-02-28T04:07:07;100719.75;;;2.92;58.13
54329;BME280;40710;51.120;13.136;2023-02-28T04:09:33;100715.44;;;2.84;58.35
54329;BME280;40710;51.120;13.136;2023-02-28T04:11:57;100718.91;;;3.02;58.11
54329;BME280;40710;51.120;13.136;2023-02-28T04:14:23;100723.22;;;3.00;57.98
54329;BME280;40710;51.120;13.136;2023-02-28T04:16:48;100724.94;;;3.10;58.16
54329;BME280;40710;51.120;13.136;2023-02-28T04:19:13;100723.22;;;3.11;57.86
54329;BME280;40710;51.120;13.136;2023-02-28T04:21:42;100714.56;;;3.21;57.60
54329;BME280;40710;51.120;13.136;2023-02-28T04:24:10;100724.94;;;2.89;58.32
54329;BME280;40710;51.120;13.136;2023-02-28T04:26:38;100730.13;;;2.75;59.32
54329;BME280;40710;51.120;13.136;2023-02-28T04:29:04;100737.91;;;2.76;58.81
54329;BME280;40710;51.120;13.136;2023-02-28T04:31:29;100749.13;;;2.49;61.53
54329;BME280;40710;51.120;13.136;2023-02-28T04:33:53;100744.78;;;2.45;61.01
54329;BME280;40710;51.120;13.136;2023-02-28T04:36:18;100743.94;;;2.46;60.81
54329;BME280;40710;51.120;13.136;2023-02-28T04:38:43;100743.13;;;2.70;60.12
54329;BME280;40710;51.120;13.136;2023-02-28T04:41:08;100738.81;;;3.09;58.91
54329;BME280;40710;51.120;13.136;2023-02-28T04:43:33;100734.47;;;3.00;58.89
54329;BME280;40710;51.120;13.136;2023-02-28T04:46:01;100737.03;;;2.70;59.39
54329;BME280;40710;51.120;13.136;2023-02-28T04:48:31;100743.09;;;2.55;59.48
54329;BME280;40710;51.120;13.136;2023-02-28T04:51:01;100748.28;;;2.55;59.39
54329;BME280;40710;51.120;13.136;2023-02-28T04:53:27;100745.72;;;2.81;58.94
54329;BME280;40710;51.120;13.136;2023-02-28T04:55:52;100743.09;;;2.76;58.83
54329;BME280;40710;51.120;13.136;2023-02-28T04:58:17;100750.00;;;2.62;58.48
54329;BME280;40710;51.120;13.136;2023-02-28T05:00:41;100754.31;;;2.52;58.90
54329;BME280;40710;51.120;13.136;2023-02-28T05:03:06;100747.44;;;2.67;58.98
54329;BME280;40710;51.120;13.136;2023-02-28T05:05:30;100745.63;;;2.30;58.60
54329;BME280;40710;51.120;13.136;2023-02-28T05:07:55;100747.34;;;2.42;58.58
54329;BME280;40710;51.120;13.136;2023-02-28T05:10:20;100749.09;;;2.43;58.24
54329;BME280;40710;51.120;13.136;2023-02-28T05:12:45;100740.44;;;2.33;58.66
54329;BME280;40710;51.120;13.136;2023-02-28T05:15:13;100744.69;;;2.13;59.02
54329;BME280;40710;51.120;13.136;2023-02-28T05:17:38;100749.00;;;2.12;59.00
54329;BME280;40710;51.120;13.136;2023-02-28T05:20:03;100755.03;;;2.00;59.26
54329;BME280;40710;51.120;13.136;2023-02-28T05:22:29;100749.84;;;2.03;58.87
54329;BME280;40710;51.120;13.136;2023-02-28T05:24:53;100753.22;;;1.88;59.18
54329;BME280;40710;51.120;13.136;2023-02-28T05:27:18;100748.94;;;1.92;58.83
54329;BME280;40710;51.120;13.136;2023-02-28T05:29:42;100751.56;;;1.98;59.15
54329;BME280;40710;51.120;13.136;2023-02-28T05:32:09;100750.72;;;2.02;58.69
54329;BME280;40710;51.120;13.136;2023-02-28T05:34:36;100760.25;;;2.10;58.90
54329;BME280;40710;51.120;13.136;2023-02-28T05:37:00;100752.44;;;2.03;58.95
54329;BME280;40710;51.120;13.136;2023-02-28T05:39:25;100762.63;;;1.65;59.37
54329;BME280;40710;51.120;13.136;2023-02-28T05:41:49;100758.47;;;1.95;59.43
54329;BME280;40710;51.120;13.136;2023-02-28T05:44:15;100768.75;;;1.84;59.17
54329;BME280;40710;51.120;13.136;2023-02-28T05:46:39;100768.66;;;1.65;59.76
54329;BME280;40710;51.120;13.136;2023-02-28T05:49:04;100763.56;;;1.79;59.47
54329;BME280;40710;51.120;13.136;2023-02-28T05:51:28;100764.47;;;1.91;59.09
54329;BME280;40710;51.120;13.136;2023-02-28T05:53:53;100775.72;;;1.88;59.32
54329;BME280;40710;51.120;13.136;2023-02-28T05:56:17;100767.00;;;1.77;59.65
54329;BME280;40710;51.120;13.136;2023-02-28T05:58:42;100766.16;;;1.79;59.23
54329;BME280;40710;51.120;13.136;2023-02-28T06:01:22;100771.34;;;1.84;59.39
54329;BME280;40710;51.120;13.136;2023-02-28T06:03:47;100772.19;;;1.80;59.50
54329;BME280;40710;51.120;13.136;2023-02-28T06:06:11;100771.16;;;1.50;60.23
54329;BME280;40710;51.120;13.136;2023-02-28T06:08:36;100779.78;;;1.49;60.24
54329;BME280;40710;51.120;13.136;2023-02-28T06:11:03;100771.34;;;1.84;59.04
54329;BME280;40710;51.120;13.136;2023-02-28T06:13:28;100778.97;;;1.56;60.07
54329;BME280;40710;51.120;13.136;2023-02-28T06:15:53;100786.06;;;1.88;59.27
54329;BME280;40710;51.120;13.136;2023-02-28T06:18:17;100792.75;;;1.47;60.16
54329;BME280;40710;51.120;13.136;2023-02-28T06:20:42;100794.53;;;1.56;60.55
54329;BME280;40710;51.120;13.136;2023-02-28T06:23:06;100793.69;;;1.66;59.98
54329;BME280;40710;51.120;13.136;2023-02-28T06:25:31;100792.81;;;1.58;60.62
54329;BME280;40710;51.120;13.136;2023-02-28T06:27:55;100798.88;;;1.66;60.00
54329;BME280;40710;51.120;13.136;2023-02-28T06:30:20;100802.47;;;1.87;59.77
54329;BME280;40710;51.120;13.136;2023-02-28T06:32:49;100805.88;;;1.74;59.85
54329;BME280;40710;51.120;13.136;2023-02-28T06:35:14;100812.81;;;1.81;59.78
54329;BME280;40710;51.120;13.136;2023-02-28T06:37:38;100815.41;;;1.79;59.56
54329;BME280;40710;51.120;13.136;2023-02-28T06:40:03;100822.28;;;1.79;60.22
54329;BME280;40710;51.120;13.136;2023-02-28T06:42:30;100820.72;;;2.02;59.27
54329;BME280;40710;51.120;13.136;2023-02-28T06:44:56;100831.06;;;1.99;59.36
54329;BME280;40710;51.120;13.136;2023-02-28T06:47:21;100825.91;;;2.08;59.18
54329;BME280;40710;51.120;13.136;2023-02-28T06:49:45;100827.63;;;2.06;59.11
54329;BME280;40710;51.120;13.136;2023-02-28T06:52:10;100826.00;;;2.25;59.17
54329;BME280;40710;51.120;13.136;2023-02-28T06:54:36;100827.81;;;2.43;59.01
54329;BME280;40710;51.120;13.136;2023-02-28T06:57:01;100828.63;;;2.29;59.16
54329;BME280;40710;51.120;13.136;2023-02-28T06:59:25;100826.09;;;2.45;58.37
54329;BME280;40710;51.120;13.136;2023-02-28T07:01:50;100824.53;;;3.12;57.28
54329;BME280;40710;51.120;13.136;2023-02-28T07:04:14;100824.50;;;3.28;56.78
54329;BME280;40710;51.120;13.136;2023-02-28T07:06:39;100813.19;;;3.93;55.29
54329;BME280;40710;51.120;13.136;2023-02-28T07:09:03;100787.22;;;6.21;50.16
54329;BME280;40710;51.120;13.136;2023-02-28T07:11:28;100764.59;;;8.28;44.01
54329;BME280;40710;51.120;13.136;2023-02-28T07:13:54;100764.84;;;8.16;43.51
54329;BME280;40710;51.120;13.136;2023-02-28T07:16:18;100784.38;;;7.00;45.33
54329;BME280;40710;51.120;13.136;2023-02-28T07:18:43;100794.88;;;6.35;47.56
54329;BME280;40710;51.120;13.136;2023-02-28T07:21:10;100803.66;;;5.41;51.45
54329;BME280;40710;51.120;13.136;2023-02-28T07:23:35;100799.91;;;5.71;50.92
54329;BME280;40710;51.120;13.136;2023-02-28T07:25:59;100799.19;;;5.55;50.35
54329;BME280;40710;51.120;13.136;2023-02-28T07:28:25;100804.28;;;5.69;50.08
54329;BME280;40710;51.120;13.136;2023-02-28T07:30:49;100801.09;;;6.24;49.09
54329;BME280;40710;51.120;13.136;2023-02-28T07:33:14;100803.44;;;6.46;48.23
54329;BME280;40710;51.120;13.136;2023-02-28T07:35:38;100795.13;;;6.80;47.55
54329;BME280;40710;51.120;13.136;2023-02-28T07:38:03;100801.28;;;6.77;47.65
54329;BME280;40710;51.120;13.136;2023-02-28T07:40:28;100796.03;;;7.35;46.55
54329;BME280;40710;51.120;13.136;2023-02-28T07:42:52;100783.88;;;7.81;44.76
54329;BME280;40710;51.120;13.136;2023-02-28T07:45:17;100793.88;;;7.06;45.62
54329;BME280;40710;51.120;13.136;2023-02-28T07:47:42;100785.88;;;7.66;44.19
54329;BME280;40710;51.120;13.136;2023-02-28T07:50:09;100778.13;;;8.07;43.56
54329;BME280;40710;51.120;13.136;2023-02-28T07:52:36;100776.31;;;8.10;43.11
54329;BME280;40710;51.120;13.136;2023-02-28T07:55:00;100788.19;;;8.27;42.96
54329;BME280;40710;51.120;13.136;2023-02-28T07:57:25;100790.03;;;8.22;43.46
54329;BME280;40710;51.120;13.136;2023-02-28T07:59:49;100779.88;;;9.25;41.25
54329;BME280;40710;51.120;13.136;2023-02-28T08:02:16;100766.53;;;10.00;39.81
54329;BME280;40710;51.120;13.136;2023-02-28T08:04:41;100771.84;;;9.65;39.45
54329;BME280;40710;51.120;13.136;2023-02-28T08:07:06;100772.06;;;9.58;39.65
54329;BME280;40710;51.120;13.136;2023-02-28T08:09:30;100791.38;;;8.41;42.06
54329;BME280;40710;51.120;13.136;2023-02-28T08:11:55;100796.19;;;7.75;43.14
54329;BME280;40710;51.120;13.136;2023-02-28T08:14:19;100805.47;;;7.44;44.16
54329;BME280;40710;51.120;13.136;2023-02-28T08:16:44;100800.47;;;7.28;43.54
54329;BME280;40710;51.120;13.136;2023-02-28T08:19:08;100807.50;;;7.26;44.30
54329;BME280;40710;51.120;13.136;2023-02-28T08:21:33;100813.47;;;6.77;45.29
54329;BME280;40710;51.120;13.136;2023-02-28T08:23:58;100814.56;;;7.19;44.89
54329;BME280;40710;51.120;13.136;2023-02-28T08:26:22;100804.75;;;7.84;43.97
54329;BME280;40710;51.120;13.136;2023-02-28T08:28:47;100787.50;;;9.34;42.26
54329;BME280;40710;51.120;13.136;2023-02-28T08:31:13;100769.38;;;10.53;38.33
54329;BME280;40710;51.120;13.136;2023-02-28T08:33:39;100778.47;;;10.71;39.25
54329;BME280;40710;51.120;13.136;2023-02-28T08:36:04;100771.22;;;10.50;38.44
54329;BME280;40710;51.120;13.136;2023-02-28T08:38:29;100785.97;;;9.25;39.91
54329;BME280;40710;51.120;13.136;2023-02-28T08:40:59;100769.38;;;10.82;38.56
54329;BME280;40710;51.120;13.136;2023-02-28T08:43:24;100768.72;;;11.80;37.80
54329;BME280;40710;51.120;13.136;2023-02-28T08:45:51;100767.53;;;11.90;35.78
54329;BME280;40710;51.120;13.136;2023-02-28T08:48:16;100768.88;;;12.01;34.69
54329;BME280;40710;51.120;13.136;2023-02-28T08:50:40;100778.25;;;11.59;34.88
54329;BME280;40710;51.120;13.136;2023-02-28T08:53:05;100774.56;;;11.88;34.13
54329;BME280;40710;51.120;13.136;2023-02-28T08:55:30;100771.16;;;11.61;33.90
54329;BME280;40710;51.120;13.136;2023-02-28T08:57:54;100779.56;;;11.98;34.52
54329;BME280;40710;51.120;13.136;2023-02-28T09:00:19;100775.03;;;12.48;33.60
54329;BME280;40710;51.120;13.136;2023-02-28T09:02:44;100758.25;;;14.18;30.87
54329;BME280;40710;51.120;13.136;2023-02-28T09:05:09;100773.03;;;12.99;32.07
54329;BME280;40710;51.120;13.136;2023-02-28T09:07:34;100768.22;;;13.93;30.57
54329;BME280;40710;51.120;13.136;2023-02-28T09:09:58;100783.69;;;12.74;32.61
54329;BME280;40710;51.120;13.136;2023-02-28T09:12:24;100767.56;;;14.46;31.24
54329;BME280;40710;51.120;13.136;2023-02-28T09:14:50;100771.50;;;13.98;31.57
54329;BME280;40710;51.120;13.136;2023-02-28T09:17:15;100767.97;;;13.58;31.42
54329;BME280;40710;51.120;13.136;2023-02-28T09:19:39;100756.28;;;14.24;29.71
54329;BME280;40710;51.120;13.136;2023-02-28T09:22:04;100756.66;;;14.90;29.92
54329;BME280;40710;51.120;13.136;2023-02-28T09:24:28;100766.31;;;14.91;28.92
54329;BME280;40710;51.120;13.136;2023-02-28T09:26:55;100769.72;;;13.98;29.44
54329;BME280;40710;51.120;13.136;2023-02-28T09:29:20;100761.84;;;15.28;28.41
54329;BME280;40710;51.120;13.136;2023-02-28T09:31:44;100770.88;;;15.24;29.13
54329;BME280;40710;51.120;13.136;2023-02-28T09:34:09;100770.09;;;15.05;30.69
54329;BME280;40710;51.120;13.136;2023-02-28T09:36:34;100755.28;;;15.70;28.22
54329;BME280;40710;51.120;13.136;2023-02-28T09:38:59;100750.41;;;16.45;27.66
54329;BME280;40710;51.120;13.136;2023-02-28T09:41:26;100748.69;;;16.76;27.83
54329;BME280;40710;51.120;13.136;2023-02-28T09:44:00;100755.84;;;16.11;28.12
54329;BME280;40710;51.120;13.136;2023-02-28T09:46:38;100758.44;;;14.90;27.51
54329;BME280;40710;51.120;13.136;2023-02-28T09:49:10;100749.41;;;15.30;26.66
54329;BME280;40710;51.120;13.136;2023-02-28T09:54:18;100753.66;;;15.68;26.74
54329;BME280;40710;51.120;13.136;2023-02-28T09:56:45;100744.38;;;15.59;26.13
54329;BME280;40710;51.120;13.136;2023-02-28T09:59:27;100750.47;;;16.28;26.75
54329;BME280;40710;51.120;13.136;2023-02-28T10:07:37;100752.13;;;15.29;26.69
54329;BME280;40710;51.120;13.136;2023-02-28T10:10:22;100765.78;;;13.47;28.15
54329;BME280;40710;51.120;13.136;2023-02-28T10:12:53;100797.34;;;10.56;32.45
54329;BME280;40710;51.120;13.136;2023-02-28T10:15:23;100802.59;;;11.39;31.83
54329;BME280;40710;51.120;13.136;2023-02-28T10:17:56;100784.84;;;11.71;30.29
54329;BME280;40710;51.120;13.136;2023-02-28T10:20:24;100810.00;;;10.43;32.17
54329;BME280;40710;51.120;13.136;2023-02-28T10:23:05;100816.38;;;9.34;34.55
54329;BME280;40710;51.120;13.136;2023-02-28T10:25:37;100819.84;;;8.99;35.21
54329;BME280;40710;51.120;13.136;2023-02-28T10:28:13;100824.88;;;9.08;34.50
54329;BME280;40710;51.120;13.136;2023-02-28T10:30:43;100822.63;;;8.08;36.52
54329;BME280;40710;51.120;13.136;2023-02-28T10:35:43;100807.03;;;9.91;34.23
54329;BME280;40710;51.120;13.136;2023-02-28T10:38:17;100816.69;;;8.84;36.23
54329;BME280;40710;51.120;13.136;2023-02-28T10:40:42;100796.47;;;10.26;33.94
54329;BME280;40710;51.120;13.136;2023-02-28T10:45:37;100795.72;;;9.89;33.79
54329;BME280;40710;51.120;13.136;2023-02-28T10:48:36;100801.69;;;8.52;34.75
54329;BME280;40710;51.120;13.136;2023-02-28T10:51:02;100805.47;;;7.44;36.47
54329;BME280;40710;51.120;13.136;2023-02-28T10:53:32;100818.16;;;7.14;37.48
54329;BME280;40710;51.120;13.136;2023-02-28T10:58:34;100812.72;;;7.76;38.20
54329;BME280;40710;51.120;13.136;2023-02-28T11:01:14;100815.50;;;7.68;39.25
54329;BME280;40710;51.120;13.136;2023-02-28T11:03:39;100817.63;;;7.46;39.22
54329;BME280;40710;51.120;13.136;2023-02-28T11:06:08;100808.53;;;7.67;41.29
54329;BME280;40710;51.120;13.136;2023-02-28T11:11:43;100793.47;;;8.24;38.34
54329;BME280;40710;51.120;13.136;2023-02-28T11:14:27;100804.97;;;7.20;38.24
54329;BME280;40710;51.120;13.136;2023-02-28T11:16:54;100790.75;;;9.09;35.78
54329;BME280;40710;51.120;13.136;2023-02-28T11:19:35;100785.09;;;8.06;36.39
54329;BME280;40710;51.120;13.136;2023-02-28T11:22:04;100783.13;;;7.74;37.94
54329;BME280;40710;51.120;13.136;2023-02-28T11:24:42;100788.00;;;7.46;38.60
54329;BME280;40710;51.120;13.136;2023-02-28T11:27:45;100780.91;;;7.98;37.94
54329;BME280;40710;51.120;13.136;2023-02-28T11:30:28;100770.53;;;8.37;37.64
54329;BME280;40710;51.120;13.136;2023-02-28T11:32:53;100776.19;;;8.15;37.11
54329;BME280;40710;51.120;13.136;2023-02-28T11:35:27;100770.06;;;7.72;37.45
54329;BME280;40710;51.120;13.136;2023-02-28T11:37:53;100772.09;;;8.47;38.43
54329;BME280;40710;51.120;13.136;2023-02-28T11:40:31;100771.66;;;8.25;37.15
54329;BME280;40710;51.120;13.136;2023-02-28T11:45:56;100726.16;;;12.40;30.66
54329;BME280;40710;51.120;13.136;2023-02-28T11:48:40;100733.78;;;12.00;31.04
54329;BME280;40710;51.120;13.136;2023-02-28T11:51:26;100736.06;;;11.61;31.42
54329;BME280;40710;51.120;13.136;2023-02-28T11:54:16;100746.81;;;10.46;32.53
54329;BME280;40710;51.120;13.136;2023-02-28T11:57:19;100718.63;;;12.75;29.37
54329;BME280;40710;51.120;13.136;2023-02-28T12:00:02;100712.06;;;13.05;29.57
54329;BME280;40710;51.120;13.136;2023-02-28T12:02:49;100712.88;;;13.28;28.98
54329;BME280;40710;51.120;13.136;2023-02-28T12:05:28;100717.38;;;14.26;30.03
54329;BME280;40710;51.120;13.136;2023-02-28T12:08:15;100701.38;;;14.84;27.32
54329;BME280;40710;51.120;13.136;2023-02-28T12:11:02;100706.00;;;14.43;28.19
54329;BME280;40710;51.120;13.136;2023-02-28T12:13:40;100693.41;;;15.54;27.15
54329;BME280;40710;51.120;13.136;2023-02-28T12:16:20;100689.38;;;15.47;27.19
54329;BME280;40710;51.120;13.136;2023-02-28T12:19:09;100690.63;;;15.75;27.24
54329;BME280;40710;51.120;13.136;2023-02-28T12:22:05;100690.50;;;15.25;27.13
54329;BME280;40710;51.120;13.136;2023-02-28T12:27:23;100682.22;;;15.31;27.44
54329;BME280;40710;51.120;13.136;2023-02-28T12:32:39;100683.69;;;15.37;26.63
54329;BME280;40710;51.120;13.136;2023-02-28T12:37:44;100672.06;;;15.75;26.39
54329;BME280;40710;51.120;13.136;2023-02-28T12:40:22;100683.94;;;14.80;27.00
54329;BME280;40710;51.120;13.136;2023-02-28T12:42:54;100679.34;;;15.87;26.52
54329;BME280;40710;51.120;13.136;2023-02-28T12:45:24;100682.56;;;15.08;26.51
54329;BME280;40710;51.120;13.136;2023-02-28T12:48:00;100680.28;;;15.00;26.99
54329;BME280;40710;51.120;13.136;2023-02-28T12:50:27;100686.69;;;14.60;27.91
54329;BME280;40710;51.120;13.136;2023-02-28T12:53:06;100682.31;;;15.63;27.97
54329;BME280;40710;51.120;13.136;2023-02-28T12:56:01;100677.78;;;15.65;27.32
54329;BME280;40710;51.120;13.136;2023-02-28T12:58:50;100682.75;;;14.68;27.88
54329;BME280;40710;51.120;13.136;2023-02-28T13:01:56;100695.56;;;13.43;28.69
54329;BME280;40710;51.120;13.136;2023-02-28T13:04:46;100697.72;;;13.33;29.63
54329;BME280;40710;51.120;13.136;2023-02-28T13:08:04;100691.34;;;12.96;30.09
54329;BME280;40710;51.120;13.136;2023-02-28T13:10:47;100704.06;;;11.97;32.02
54329;BME280;40710;51.120;13.136;2023-02-28T13:13:21;100700.78;;;12.59;31.31
54329;BME280;40710;51.120;13.136;2023-02-28T13:21:02;100693.47;;;12.44;31.29
54329;BME280;40710;51.120;13.136;2023-02-28T13:26:16;100690.78;;;12.45;30.96
54329;BME280;40710;51.120;13.136;2023-02-28T13:34:26;100711.69;;;11.29;32.50
54329;BME280;40710;51.120;13.136;2023-02-28T13:39:54;100693.63;;;13.26;30.63
54329;BME280;40710;51.120;13.136;2023-02-28T13:45:25;100682.66;;;12.94;30.23
54329;BME280;40710;51.120;13.136;2023-02-28T13:58:43;100655.91;;;14.59;28.50
54329;BME280;40710;51.120;13.136;2023-02-28T14:04:12;100648.13;;;14.17;28.57
54329;BME280;40710;51.120;13.136;2023-02-28T14:06:50;100647.31;;;13.39;29.01
54329;BME280;40710;51.120;13.136;2023-02-28T14:11:47;100642.78;;;13.81;28.18
54329;BME280;40710;51.120;13.136;2023-02-28T14:16:58;100629.50;;;14.21;28.74
54329;BME280;40710;51.120;13.136;2023-02-28T14:19:26;100635.97;;;13.56;29.42
54329;BME280;40710;51.120;13.136;2023-02-28T14:25:16;100635.91;;;13.58;29.15
54329;BME280;40710;51.120;13.136;2023-02-28T14:28:08;100645.19;;;13.07;29.76
54329;BME280;40710;51.120;13.136;2023-02-28T14:31:02;100641.91;;;13.61;29.45
54329;BME280;40710;51.120;13.136;2023-02-28T14:36:36;100654.47;;;12.08;30.17